Flight Track Log - Related Links

Times and Time Zones

All times are in EDT time to prevent confusion due to time zone crossing. See the SWA2524 flight status page for this flight to view local times or setup timezone preferences in your user account.

Time Position Orientation Groundspeed Altitude Reporting Facility
EDT Latitude Longitude Course Direction KTS MPH feet Rate Location/Type
Fri 07:26:01 PM 38.6653 -90.2828 179° South 251 289 3,900  Level Kansas City Center
Fri 07:27:05 PM 38.6031 -90.3272 209° Southwest 248 285 7,300 2,784 Climbing Kansas City Center
Fri 07:28:06 PM 38.5475 -90.3836 218° Southwest 252 290 9,700 2,459 Climbing Kansas City Center
Fri 07:29:07 PM 38.4472 -90.4258 198° South 303 349 12,300 2,333 Climbing Kansas City Center
Fri 07:30:12 PM 38.3578 -90.4617 197° South 324 373 14,600 2,352 Climbing Kansas City Center
Fri 07:31:12 PM 38.2622 -90.4992 197° South 345 397 17,200 2,311 Climbing Kansas City Center
Fri 07:32:14 PM 38.1658 -90.5369 197° South 359 413 19,300 1,951 Climbing Kansas City Center
Fri 07:33:15 PM 38.0653 -90.5731 196° South 369 425 21,200 1,854 Climbing Kansas City Center
Fri 07:34:17 PM 37.9564 -90.5828 184° South 387 445 23,100 1,805 Climbing Kansas City Center
Fri 07:35:18 PM 37.8481 -90.5942 185° South 390 449 24,900 1,659 Climbing Kansas City Center
Fri 07:36:20 PM 37.7164 -90.6089 185° South 394 453 26,500 1,381 Climbing Kansas City Center
Fri 07:37:24 PM 37.6019 -90.6222 185° South 407 468 27,800 1,152 Climbing Kansas City Center
Fri 07:38:25 PM 37.4861 -90.6364 186° South 415 478 28,900 595 Climbing Kansas City Center
Fri 07:39:25 PM 37.3683 -90.6475 184° South 422 486 29,000 689 Climbing Kansas City Center
Fri 07:40:27 PM 37.2525 -90.6611 185° South 424 488 30,300 1,286 Climbing Kansas City Center
Fri 07:41:31 PM 37.1114 -90.6633 181° South 420 483 31,700 1,152 Climbing Kansas City Center
Fri 07:42:32 PM 36.9928 -90.6514 175° South 425 489 32,700 1,091 Climbing Kansas City Center
Fri 07:43:32 PM 36.8750 -90.6425 177° South 424 488 33,900 1,009 Climbing Kansas City Center
Fri 07:44:25 PM 36.7733 -90.6419 180° South 430 495 34,600 584 Climbing Memphis Center
Fri 07:45:25 PM 36.6544 -90.6336 177° South 430 495 35,000 200 Climbing Memphis Center
Fri 07:46:25 PM 36.5378 -90.6256 177° South 430 495 35,000  Level Memphis Center
Fri 07:47:25 PM 36.4147 -90.6175 177° South 435 501 35,000  Level Memphis Center
Fri 07:48:25 PM 36.2958 -90.6067 176° South 435 501 35,000  Level Memphis Center
Fri 07:49:25 PM 36.1750 -90.5986 177° South 435 501 35,000  Level Memphis Center
Fri 07:50:25 PM 36.0561 -90.5881 176° South 435 501 35,000  Level Memphis Center
Fri 07:51:25 PM 35.9375 -90.5800 177° South 435 501 35,000  Level Memphis Center
Fri 07:52:25 PM 35.8186 -90.5694 176° South 435 501 35,000  Level Memphis Center
Fri 07:53:25 PM 35.7017 -90.5617 177° South 435 501 35,000  Level Memphis Center
Fri 07:54:25 PM 35.5747 -90.5511 176° South 420 483 35,000  Level Memphis Center
Fri 07:55:25 PM 35.4578 -90.5431 177° South 425 489 35,000  Level Memphis Center
Fri 07:56:25 PM 35.3369 -90.5353 177° South 425 489 35,000  Level Memphis Center
Fri 07:57:25 PM 35.2325 -90.5275 177° South 425 489 35,000  Level Memphis Center
Fri 07:58:25 PM 35.1117 -90.5194 177° South 430 495 35,000  Level Memphis Center
Fri 07:59:25 PM 34.9928 -90.5117 177° South 430 495 35,000  Level Memphis Center
Fri 08:00:25 PM 34.8739 -90.5039 177° South 430 495 35,000  Level Memphis Center
Fri 08:01:25 PM 34.7528 -90.4961 177° South 430 495 35,000  Level Memphis Center
Fri 08:02:25 PM 34.6317 -90.4858 176° South 436 502 35,000  Level Memphis Center
Fri 08:03:25 PM 34.5128 -90.4781 177° South 436 502 35,000  Level Memphis Center
Fri 08:04:25 PM 34.3897 -90.4703 177° South 442 509 35,000  Level Memphis Center
Fri 08:05:25 PM 34.2686 -90.4628 177° South 442 509 35,000  Level Memphis Center
Fri 08:06:25 PM 34.1456 -90.4525 176° South 442 509 35,000  Level Memphis Center
Fri 08:07:25 PM 34.0225 -90.4425 176° South 447 514 35,000  Level Memphis Center
Fri 08:08:25 PM 33.8867 -90.4347 177° South 442 509 35,000  Level Memphis Center
Fri 08:09:25 PM 33.7803 -90.4247 176° South 442 509 35,000  Level Memphis Center
Fri 08:10:25 PM 33.6572 -90.4172 177° South 442 509 35,000  Level Memphis Center
Fri 08:11:25 PM 33.5361 -90.4094 177° South 442 509 35,000 -500 Level Memphis Center
Fri 08:12:25 PM 33.4150 -90.4019 177° South 442 509 34,000 -950 Descending Memphis Center
Fri 08:13:25 PM 33.2919 -90.3919 176° South 442 509 33,100 -900 Descending Memphis Center
Fri 08:14:25 PM 33.1689 -90.3844 177° South 442 509 32,200 -900 Descending Memphis Center
Fri 08:15:25 PM 33.0436 -90.3747 176° South 442 509 31,300 -600 Descending Memphis Center
Fri 08:16:25 PM 32.9058 -90.3672 177° South 447 514 31,000 -150 Descending Memphis Center
Fri 08:17:25 PM 32.7825 -90.3572 176° South 447 514 31,000  Level Memphis Center
Fri 08:18:25 PM 32.6594 -90.3475 176° South 447 514 31,000  Level Memphis Center
Fri 08:19:25 PM 32.5361 -90.3400 177° South 447 514 31,000  Level Memphis Center
Fri 08:20:25 PM 32.4131 -90.3328 177° South 442 509 31,000  Level Memphis Center
Fri 08:21:25 PM 32.2919 -90.3253 177° South 442 509 31,000  Level Memphis Center
Fri 08:22:25 PM 32.1667 -90.3156 176° South 442 509 31,000  Level Memphis Center
Fri 08:24:20 PM 31.9367 -90.2989 176° South 447 514 31,000 -780 Level Houston Center
Fri 08:25:22 PM 31.8125 -90.2903 177° South 448 516 28,700 -2,274 Descending Houston Center
Fri 08:26:24 PM 31.6925 -90.2836 177° South 435 501 26,300 -2,195 Descending Houston Center
Fri 08:27:25 PM 31.5719 -90.2756 177° South 434 499 24,200 -1,805 Descending Houston Center
Fri 08:28:27 PM 31.4358 -90.2672 177° South 416 479 22,600 -1,258 Descending Houston Center
Fri 08:29:29 PM 31.3236 -90.2600 177° South 407 468 21,600 -919 Descending Houston Center
Fri 08:30:31 PM 31.2103 -90.2528 177° South 408 470 20,700 -976 Descending Houston Center
Fri 08:31:32 PM 31.1019 -90.2439 176° South 397 457 19,600 -1,073 Descending Houston Center
Fri 08:32:34 PM 30.9972 -90.2367 177° South 384 442 18,500 -1,065 Descending Houston Center
Fri 08:33:36 PM 30.8942 -90.2283 176° South 376 433 17,400 -1,452 Descending Houston Center
Fri 08:34:38 PM 30.7972 -90.2203 176° South 357 411 15,500 -2,167 Descending Houston Center
Fri 08:34:48 PM 30.7647 -90.2172 175° South 349 402 14,800 -2,366 Descending Houston Center
Fri 08:35:49 PM 30.6664 -90.2114 177° South 353 406 12,700 -1,736 Descending Houston Center
Fri 08:36:49 PM 30.5742 -90.2056 177° South 333 383 11,300 -1,368 Descending Houston Center
Fri 08:37:43 PM 30.5033 -90.2072 181° South 306 352 10,100 -1,309 Descending Houston Center
Fri 08:37:44 PM 30.4969 -90.2064 174° South 293 337 10,100 -1,672 Level Houston Center
Fri 08:38:44 PM 30.4178 -90.2094 182° South 279 321 8,400 -1,475 Descending Houston Center
Fri 08:38:45 PM 30.4250 -90.2081 North 287 330 8,600 -1,475 Climbing Houston Center
Fri 08:39:45 PM 30.3361 -90.2106 181° South 273 314 6,900 -1,452 Descending Houston Center
Fri 08:39:47 PM 30.3492 -90.2103 North 277 319 7,100 -1,574 Climbing Houston Center
Fri 08:40:46 PM 30.2631 -90.2111 180° South 261 300 5,300 -1,574 Descending Houston Center
Fri 08:40:48 PM 30.2761 -90.2111 360° North 268 308 5,500 -1,500 Climbing Houston Center
Fri 08:41:50 PM 30.1911 -90.2128 181° South 260 299 3,700 -1,688 Descending Houston Center
Fri 08:41:52 PM 30.1858 -90.2142 193° South 259 298 3,700 -1,548 Level Houston Center
Fri 08:42:52 PM 30.1242 -90.2147 180° South 253 291 2,100 -1,475 Descending Houston Center
Fri 08:42:53 PM 30.1211 -90.2144 176° South 230 265 2,200 -393 Climbing Houston Center
Fri 08:43:53 PM 30.0767 -90.2236 190° South 204 235 1,700 -492 Descending Houston Center
Fri 08:43:54 PM 30.0733 -90.2236 180° South 164 189 1,700 -984 Level Houston Center
Fri 08:44:54 PM 30.0300 -90.2372 195° South 137 158 700 -885 Descending Houston Center
Fri 08:44:55 PM 30.0372 -90.2358 North 170 196 800 -381 Climbing Houston Center
Fri 08:45:57 PM 29.9947 -90.2492 195° South 157 181 300 -484 Descending Houston Center
Fri 08:47:00 PM 29.9833 -90.2500 190° South  Level FlightAware Approximate
Fri 08:54:00 PM 29.9933 -90.2590 190° South  Level Estimated
Fri 08:55:00 PM 29.9933 -90.2590 190° South  Level Estimated
Fri 08:56:00 PM 29.9933 -90.2590 190° South  Level Estimated

Login

Don't have an account? Register now (free) for customized features, flight alerts, and more!